Time;durP1;ratioP1;P1;durP2;ratioP2;P2;SDS_P1;SDS_P2;PMS_P1;PMS_P2;Temp;Humidity;BMP_temperature;BMP_pressure;BME280_temperature;BME280_humidity;BME280_pressure;Samples;Min_cycle;Max_cycle;Signal;HPM_P1;HPM_P2
2022/04/17 00:00:00;;;;;;;;;2.00;2.00;;;;;15.29;37.68;102150.66;5079389;28;45365;-71
2022/04/17 00:02:27;;;;;;;;;1.67;1.33;;;;;15.24;37.38;102142.22;5085352;27;45497;-71
2022/04/17 00:04:52;;;;;;;;;2.33;2.33;;;;;15.23;37.38;102148.56;5098710;27;45476;-70
2022/04/17 00:07:18;;;;;;;;;6.67;6.33;;;;;15.21;37.73;102150.50;5081258;27;45458;-72
2022/04/17 00:09:46;;;;;;;;;3.00;3.00;;;;;14.90;37.44;102094.38;5081548;27;45546;-71
2022/04/17 00:12:12;;;;;;;;;4.00;2.67;;;;;14.99;37.48;102113.25;5081104;27;45614;-72
2022/04/17 00:14:37;;;;;;;;;4.00;4.00;;;;;14.85;37.72;102093.97;5099064;27;46127;-73
2022/04/17 00:17:03;;;;;;;;;2.00;2.00;;;;;14.91;37.73;102111.28;5080065;27;45438;-70
2022/04/17 00:19:35;;;;;;;;;2.33;2.33;;;;;14.60;37.42;102067.69;5077324;28;45469;-71
2022/04/17 00:22:00;;;;;;;;;4.33;4.33;;;;;14.88;37.62;102125.81;5079137;28;45552;-70
2022/04/17 00:24:27;;;;;;;;;5.67;4.33;;;;;14.81;37.97;102110.41;5078555;28;45857;-72
2022/04/17 00:26:52;;;;;;;;;4.00;3.00;;;;;14.88;37.72;102128.50;5059613;28;45566;-69
2022/04/17 00:29:17;;;;;;;;;4.00;4.00;;;;;14.82;37.80;102131.72;5078574;28;45425;-71
2022/04/17 00:31:47;;;;;;;;;2.67;2.00;;;;;14.79;37.80;102126.63;5073023;27;45304;-72
2022/04/17 00:34:12;;;;;;;;;3.33;3.33;;;;;14.79;38.19;102115.91;5098051;27;46418;-71
2022/04/17 00:36:37;;;;;;;;;3.00;3.00;;;;;14.79;37.38;102121.28;5099081;27;45462;-70
2022/04/17 00:39:03;;;;;;;;;3.00;3.00;;;;;14.59;38.16;102100.78;5099510;27;45532;-71
2022/04/17 00:41:28;;;;;;;;;3.33;3.33;;;;;14.40;38.24;102071.28;5080955;27;45342;-71
2022/04/17 00:43:54;;;;;;;;;3.33;3.33;;;;;14.64;38.30;102116.47;5080598;27;47339;-71
2022/04/17 00:46:19;;;;;;;;;3.67;3.00;;;;;14.60;38.30;102118.53;5080241;27;45189;-71
2022/04/17 00:48:45;;;;;;;;;3.00;3.00;;;;;14.53;37.96;102109.38;5080381;27;45178;-72
2022/04/17 00:51:11;;;;;;;;;2.00;2.00;;;;;14.54;38.34;102109.25;5098810;27;45524;-70
2022/04/17 00:53:37;;;;;;;;;4.00;4.00;;;;;14.40;38.49;102090.00;5073982;28;47708;-70
2022/04/17 00:56:03;;;;;;;;;3.33;3.33;;;;;14.25;38.26;102095.75;5078128;28;45260;-71
2022/04/17 00:58:35;;;;;;;;;4.00;3.33;;;;;14.26;38.28;102097.44;5078156;28;45492;-71
2022/04/17 01:01:04;;;;;;;;;3.67;2.00;;;;;14.30;38.57;102093.50;5078321;28;45459;-70
2022/04/17 01:03:30;;;;;;;;;5.00;5.00;;;;;14.05;38.52;102061.88;5084268;27;45512;-71
2022/04/17 01:05:56;;;;;;;;;4.33;4.33;;;;;14.41;38.26;102110.41;5077758;27;45504;-71
2022/04/17 01:08:21;;;;;;;;;3.67;3.67;;;;;14.41;38.14;102102.41;5059856;28;45565;-70
2022/04/17 01:10:47;;;;;;;;;6.33;3.33;;;;;14.36;37.63;102107.31;5078176;28;45324;-70
2022/04/17 01:13:12;;;;;;;;;6.33;4.67;;;;;14.16;38.06;102087.66;5076830;28;46803;-71
2022/04/17 01:15:38;;;;;;;;;4.33;4.33;;;;;14.24;38.33;102099.41;5078053;28;45252;-71
2022/04/17 01:18:05;;;;;;;;;3.33;2.33;;;;;14.25;38.30;102101.09;5074793;27;45287;-70
2022/04/17 01:20:30;;;;;;;;;4.67;3.00;;;;;14.27;37.61;102107.16;5098419;27;45401;-70
2022/04/17 01:28:25;;;;;;;;;5.00;5.00;;;;;14.06;38.01;102095.66;5097232;27;45213;-71
2022/04/17 01:30:55;;;;;;;;;3.33;3.33;;;;;14.04;38.39;102092.28;5098052;27;45241;-71
2022/04/17 01:33:23;;;;;;;;;3.00;3.00;;;;;13.56;37.86;102001.97;5059337;28;47587;-69
2022/04/17 01:35:49;;;;;;;;;3.67;3.00;;;;;13.94;37.15;102086.03;5085340;27;45594;-71
2022/04/17 01:38:15;;;;;;;;;7.00;3.00;;;;;13.94;37.62;102078.84;5097919;27;45250;-70
2022/04/17 01:40:41;;;;;;;;;3.00;3.00;;;;;13.89;37.72;102075.72;5079657;27;45629;-70
2022/04/17 01:43:10;;;;;;;;;5.33;5.33;;;;;13.70;38.01;102041.72;5097584;27;45532;-70
2022/04/17 01:45:35;;;;;;;;;5.00;5.00;;;;;13.91;37.90;102075.59;5098502;27;45331;-70
2022/04/17 01:48:01;;;;;;;;;4.00;4.00;;;;;13.86;37.32;102067.13;5098427;27;45415;-71
2022/04/17 01:50:27;;;;;;;;;6.33;6.33;;;;;12.95;37.80;101936.94;5079886;27;45426;-70
2022/04/17 01:52:53;;;;;;;;;6.67;6.67;;;;;13.81;37.85;102067.50;5097578;27;46583;-71
2022/04/17 01:55:19;;;;;;;;;4.67;4.67;;;;;13.54;37.76;102041.34;5097592;27;45254;-70
2022/04/17 01:57:44;;;;;;;;;4.67;3.33;;;;;13.67;37.83;102060.72;5086286;27;45454;-70
2022/04/17 02:00:10;;;;;;;;;6.33;6.33;;;;;13.75;37.70;102078.75;5077400;28;45274;-70
2022/04/17 02:02:36;;;;;;;;;3.67;3.67;;;;;13.60;38.04;102056.00;5076892;28;45602;-71
2022/04/17 02:05:02;;;;;;;;;3.67;3.67;;;;;13.61;37.68;102066.56;5058731;28;45426;-71
2022/04/17 02:07:27;;;;;;;;;5.00;4.33;;;;;13.56;37.70;102057.25;5077047;28;45435;-69
2022/04/17 02:09:53;;;;;;;;;4.00;3.00;;;;;13.71;37.40;102080.00;5059122;28;45611;-70
2022/04/17 02:12:18;;;;;;;;;4.00;4.00;;;;;13.67;37.49;102079.41;5058309;28;48125;-71
2022/04/17 02:14:44;;;;;;;;;2.67;2.67;;;;;13.70;37.19;102078.31;5080321;28;45512;-71
2022/04/17 02:17:09;;;;;;;;;2.67;2.67;;;;;13.61;36.95;102068.38;5080904;28;45318;-71
2022/04/17 02:19:36;;;;;;;;;4.33;4.33;;;;;13.59;37.21;102063.16;5080810;28;45436;-70
2022/04/17 02:22:01;;;;;;;;;5.00;5.00;;;;;13.48;37.12;102049.91;5080523;28;45683;-70
2022/04/17 02:24:27;;;;;;;;;4.33;2.00;;;;;13.51;36.44;102046.97;5080573;28;45254;-70
2022/04/17 02:26:52;;;;;;;;;5.00;5.00;;;;;13.59;36.90;102057.81;5081351;27;45419;-71
2022/04/17 02:29:17;;;;;;;;;4.00;4.00;;;;;13.55;36.76;102052.88;5080541;28;45217;-70
2022/04/17 02:31:43;;;;;;;;;4.00;4.00;;;;;13.58;36.33;102052.63;5080212;28;45570;-70
2022/04/17 02:34:11;;;;;;;;;4.00;3.67;;;;;13.10;36.33;101978.34;5061881;28;45557;-72
2022/04/17 02:36:36;;;;;;;;;5.00;5.00;;;;;13.50;36.29;102050.63;5082863;27;45785;-70
2022/04/17 02:39:02;;;;;;;;;2.67;2.67;;;;;13.36;36.01;102026.88;5062191;28;45450;-70
2022/04/17 02:41:27;;;;;;;;;4.33;4.33;;;;;13.36;36.72;102043.75;5079927;28;45736;-70
2022/04/17 02:43:53;;;;;;;;;4.67;4.67;;;;;13.13;36.47;101996.78;5080121;27;45538;-70
2022/04/17 02:47:42;;;;;;;;;3.33;3.33;;;;;13.35;36.61;102028.72;5061824;28;45454;-70
2022/04/17 02:49:03;;;;;;;;;5.00;4.00;;;;;13.36;37.04;102024.22;5080196;28;45308;-70
2022/04/17 02:51:29;;;;;;;;;5.33;5.33;;;;;13.49;36.91;102048.06;5061533;28;46039;-70
2022/04/17 02:53:54;;;;;;;;;5.00;4.00;;;;;13.31;36.69;102013.09;5061557;28;45530;-69
2022/04/17 02:56:20;;;;;;;;;4.33;4.33;;;;;13.41;36.49;102043.38;5080052;28;45656;-71
2022/04/17 02:58:45;;;;;;;;;5.67;4.33;;;;;13.26;36.57;102020.66;5079237;27;45494;-70
2022/04/17 03:06:46;;;;;;;;;4.67;3.67;;;;;13.28;36.42;102026.72;5100090;27;45266;-70
2022/04/17 03:09:12;;;;;;;;;3.67;3.67;;;;;13.19;37.16;102025.66;5100524;27;45281;-71
2022/04/17 03:11:37;;;;;;;;;5.33;5.33;;;;;13.19;36.74;102024.78;5098309;27;46401;-71
2022/04/17 03:14:03;;;;;;;;;5.67;5.67;;;;;13.10;36.73;102021.91;5078049;28;45399;-71
2022/04/17 03:16:28;;;;;;;;;5.33;4.00;;;;;13.12;36.99;102024.44;5061586;28;45577;-70
2022/04/17 03:18:54;;;;;;;;;6.00;4.67;;;;;13.13;37.05;102026.13;5079783;28;45327;-70
2022/04/17 03:21:19;;;;;;;;;5.67;5.67;;;;;13.12;36.80;102021.78;5079209;28;46400;-70
2022/04/17 03:23:44;;;;;;;;;2.33;2.33;;;;;12.97;36.67;101996.38;5079451;28;45314;-70
2022/04/17 03:26:10;;;;;;;;;4.67;4.00;;;;;13.10;37.12;102018.38;5064255;27;45434;-70
2022/04/17 03:28:35;;;;;;;;;3.67;3.67;;;;;13.05;37.30;102023.28;5082804;27;45534;-71
2022/04/17 03:31:01;;;;;;;;;5.00;5.00;;;;;12.98;37.11;102017.59;5079481;28;46231;-70
2022/04/17 03:33:28;;;;;;;;;7.00;5.33;;;;;13.02;37.13;102019.06;5079282;28;45533;-71
2022/04/17 03:35:53;;;;;;;;;7.00;6.00;;;;;12.53;36.91;101946.72;5079292;28;45231;-72
2022/04/17 03:38:19;;;;;;;;;5.00;5.00;;;;;12.76;37.06;101981.16;5083168;27;45205;-78
2022/04/17 03:40:44;;;;;;;;;4.00;4.00;;;;;12.92;37.27;102015.44;5086031;27;46494;-70
2022/04/17 03:43:11;;;;;;;;;4.67;4.67;;;;;12.87;37.55;102006.97;5099796;27;45341;-70
2022/04/17 03:45:36;;;;;;;;;5.67;3.00;;;;;12.78;37.19;102010.41;5099735;27;45237;-71
2022/04/17 03:48:01;;;;;;;;;8.67;7.00;;;;;12.69;37.29;102006.69;5096554;27;45615;-70
2022/04/17 03:50:27;;;;;;;;;6.00;5.00;;;;;12.69;37.14;102016.50;5079004;27;45842;-71
2022/04/17 03:52:52;;;;;;;;;5.00;5.00;;;;;12.58;37.43;101995.19;5060867;28;45450;-72
2022/04/17 03:55:18;;;;;;;;;5.00;5.00;;;;;12.40;37.05;101961.03;5079426;28;45240;-70
2022/04/17 03:57:43;;;;;;;;;5.00;5.00;;;;;12.24;37.69;101923.31;5061276;28;45546;-70
2022/04/17 04:00:12;;;;;;;;;4.00;4.00;;;;;12.70;36.91;102012.88;5079205;28;46191;-70
2022/04/17 04:02:38;;;;;;;;;5.67;4.67;;;;;12.61;37.10;102000.25;5062491;27;45367;-70
2022/04/17 04:05:05;;;;;;;;;6.67;5.00;;;;;12.72;36.87;102010.91;5081040;27;45485;-70
2022/04/17 04:07:30;;;;;;;;;7.00;6.33;;;;;12.60;36.94;102001.25;5099878;27;45246;-69
2022/04/17 04:09:56;;;;;;;;;3.67;3.67;;;;;12.54;37.15;101997.25;5098880;27;46868;-71
2022/04/17 04:12:21;;;;;;;;;5.00;5.00;;;;;12.47;36.85;101991.59;5099420;27;45170;-70
2022/04/17 04:14:47;;;;;;;;;5.67;4.00;;;;;12.44;37.13;101977.69;5099363;27;45390;-71
2022/04/17 04:17:12;;;;;;;;;4.00;4.00;;;;;12.58;36.97;101998.69;5080586;27;45312;-72
2022/04/17 04:19:38;;;;;;;;;5.00;5.00;;;;;12.60;36.91;101998.56;5080484;27;48028;-69
2022/04/17 04:22:03;;;;;;;;;4.00;4.00;;;;;12.47;36.92;101999.59;5080681;27;45401;-71
2022/04/17 04:24:30;;;;;;;;;5.00;5.00;;;;;12.18;37.21;101969.13;5080815;27;45473;-70
2022/04/17 04:29:39;;;;;;;;;4.00;4.00;;;;;12.30;37.18;101989.47;5078297;28;45770;-70
2022/04/17 04:32:05;;;;;;;;;5.00;5.00;;;;;12.12;37.41;101966.94;5089525;27;45477;-71
2022/04/17 04:34:31;;;;;;;;;4.67;4.67;;;;;12.29;37.42;101982.44;5098881;27;45500;-71
2022/04/17 04:36:56;;;;;;;;;9.33;5.67;;;;;12.27;37.41;101971.03;5097971;27;45435;-70
2022/04/17 04:39:22;;;;;;;;;5.67;5.00;;;;;12.32;37.58;101992.84;5098843;27;46486;-69
2022/04/17 04:41:47;;;;;;;;;8.00;5.67;;;;;12.27;36.77;101992.38;5098461;27;45419;-71
2022/04/17 04:44:13;;;;;;;;;5.00;5.00;;;;;12.22;37.26;101991.91;5098611;27;45471;-71
2022/04/17 04:46:38;;;;;;;;;6.00;6.00;;;;;12.17;37.39;101994.06;5098952;27;45343;-71
2022/04/17 04:51:49;;;;;;;;;7.00;4.67;;;;;11.93;37.49;101967.59;5097432;27;45534;-70
2022/04/17 04:54:14;;;;;;;;;5.00;5.00;;;;;11.40;38.07;101892.75;5080234;27;45285;-70
2022/04/17 04:56:40;;;;;;;;;4.00;3.00;;;;;11.95;37.82;101992.28;5098428;27;45367;-70
2022/04/17 04:59:05;;;;;;;;;3.67;3.67;;;;;11.92;37.79;101983.69;5098210;27;46317;-71
2022/04/17 05:01:31;;;;;;;;;3.67;3.67;;;;;11.57;37.44;101934.03;5098294;27;45291;-70
2022/04/17 05:03:56;;;;;;;;;4.33;3.33;;;;;11.96;37.47;101979.81;5089300;27;45381;-70
2022/04/17 05:06:25;;;;;;;;;6.00;6.00;;;;;11.98;37.16;101993.84;5083354;27;45245;-69
2022/04/17 05:08:50;;;;;;;;;5.67;5.67;;;;;12.09;37.52;101991.19;5098411;27;46560;-70
2022/04/17 05:11:15;;;;;;;;;5.00;5.00;;;;;11.96;37.22;101971.81;5098504;27;45415;-70
2022/04/17 05:13:41;;;;;;;;;4.00;4.00;;;;;12.08;37.52;102008.16;5098610;27;45307;-71
2022/04/17 05:16:07;;;;;;;;;3.33;3.33;;;;;12.04;37.21;101998.72;5098476;27;46063;-71
2022/04/17 05:18:33;;;;;;;;;3.33;3.33;;;;;11.90;37.23;101998.97;5097881;27;45278;-71
2022/04/17 05:20:59;;;;;;;;;4.00;4.00;;;;;11.75;37.56;101987.66;5075949;28;45363;-71
2022/04/17 05:23:29;;;;;;;;;5.33;5.33;;;;;11.38;37.14;101920.47;5077458;28;45239;-70
2022/04/17 05:26:02;;;;;;;;;4.67;4.67;;;;;12.03;37.41;102010.34;5077547;28;45562;-70
2022/04/17 05:28:29;;;;;;;;;5.33;5.00;;;;;12.13;37.08;102024.63;5077348;28;46587;-70
2022/04/17 05:30:55;;;;;;;;;5.00;4.00;;;;;12.04;36.66;102010.22;5077452;28;45339;-71
2022/04/17 05:33:21;;;;;;;;;6.00;4.33;;;;;11.73;37.17;101990.44;5077363;27;45552;-71
2022/04/17 05:35:49;;;;;;;;;7.00;5.67;;;;;11.96;37.13;102027.78;5077899;27;45509;-69
2022/04/17 05:38:15;;;;;;;;;5.00;5.00;;;;;11.75;36.93;102006.31;5059011;28;48345;-71
2022/04/17 05:40:42;;;;;;;;;4.67;4.67;;;;;11.84;37.17;102009.16;5058978;28;45919;-70
2022/04/17 05:43:08;;;;;;;;;8.00;5.00;;;;;11.94;36.99;102011.06;5077481;28;45475;-70
2022/04/17 05:45:34;;;;;;;;;6.00;6.00;;;;;11.93;37.02;102020.88;5077454;28;45538;-70
2022/04/17 05:48:01;;;;;;;;;10.00;6.00;;;;;11.99;37.12;102027.53;5076757;27;45321;-70
2022/04/17 05:50:27;;;;;;;;;6.00;6.00;;;;;11.88;36.76;101999.09;5097535;27;45354;-70
2022/04/17 05:52:52;;;;;;;;;6.00;5.00;;;;;12.02;36.90;102024.66;5097594;27;45226;-71
2022/04/17 05:55:19;;;;;;;;;7.00;7.00;;;;;11.92;36.40;101999.69;5097627;27;45174;-70
2022/04/17 05:57:44;;;;;;;;;5.00;5.00;;;;;12.01;36.06;102009.59;5078875;27;47637;-71
2022/04/17 06:00:11;;;;;;;;;6.00;6.00;;;;;12.02;36.02;102035.31;5097299;27;45307;-71
2022/04/17 06:02:38;;;;;;;;;6.00;6.00;;;;;11.88;36.26;102023.06;5092693;27;45442;-71
2022/04/17 06:05:04;;;;;;;;;6.00;6.00;;;;;11.95;36.76;102023.44;5097726;27;45474;-71
2022/04/17 06:07:30;;;;;;;;;5.33;5.33;;;;;11.97;36.39;102013.50;5097189;27;46711;-70
2022/04/17 06:09:56;;;;;;;;;4.33;4.33;;;;;11.39;36.30;101916.81;5078954;27;45459;-71
2022/04/17 06:12:21;;;;;;;;;6.00;5.00;;;;;11.98;35.98;102020.50;5097657;27;45346;-71
2022/04/17 06:14:46;;;;;;;;;4.33;4.33;;;;;11.86;36.20;102001.88;5079430;27;45380;-70
2022/04/17 06:17:12;;;;;;;;;5.00;5.00;;;;;12.07;36.28;102035.78;5089754;27;46969;-70
2022/04/17 06:19:37;;;;;;;;;5.33;5.33;;;;;12.11;36.08;102026.56;5076821;28;45438;-70
2022/04/17 06:22:03;;;;;;;;;1.67;1.67;;;;;12.15;36.39;102015.53;5077136;28;45378;-71
2022/04/17 06:24:29;;;;;;;;;7.67;5.00;;;;;12.18;36.31;102001.94;5076968;28;45595;-71
2022/04/17 06:26:54;;;;;;;;;5.00;4.00;;;;;12.19;35.33;101992.13;5076341;28;45835;-70
2022/04/17 06:29:20;;;;;;;;;5.67;5.67;;;;;12.68;35.84;102026.34;5076718;28;45229;-69
2022/04/17 06:31:45;;;;;;;;;5.33;4.67;;;;;13.31;34.14;102010.41;5066065;28;45407;-70
2022/04/17 06:34:15;;;;;;;;;6.67;6.67;;;;;14.02;33.01;102003.31;5090138;27;45488;-70
2022/04/17 06:36:41;;;;;;;;;3.33;3.00;;;;;14.56;31.31;101977.97;5096805;27;45594;-71
2022/04/17 06:39:06;;;;;;;;;8.33;5.67;;;;;15.18;30.87;102014.16;5078391;27;45434;-71
2022/04/17 06:41:32;;;;;;;;;4.00;4.00;;;;;15.67;30.06;102020.31;5073334;28;45590;-72
2022/04/17 06:43:57;;;;;;;;;5.00;3.67;;;;;16.19;30.05;102010.75;5080449;27;45240;-71
2022/04/17 06:46:23;;;;;;;;;4.67;4.67;;;;;16.73;29.55;101999.13;5097087;27;45719;-71
2022/04/17 06:48:48;;;;;;;;;6.67;5.00;;;;;17.02;27.99;102003.41;5078379;27;45442;-71
2022/04/17 06:51:14;;;;;;;;;4.00;4.00;;;;;17.29;27.79;102000.59;5095011;27;45315;-71
2022/04/17 06:53:39;;;;;;;;;4.67;4.67;;;;;17.58;27.18;101989.50;5076447;28;45236;-71
2022/04/17 06:56:06;;;;;;;;;6.33;6.33;;;;;17.77;26.88;101993.84;5085480;27;46545;-71
2022/04/17 06:58:32;;;;;;;;;4.00;4.00;;;;;18.20;27.08;102000.06;5078365;27;45608;-71
2022/04/17 07:00:57;;;;;;;;;4.00;4.00;;;;;18.32;26.62;101988.00;5096025;27;45373;-72
2022/04/17 07:03:23;;;;;;;;;5.33;5.33;;;;;18.51;26.74;101992.25;5066671;28;45531;-71
2022/04/17 07:05:48;;;;;;;;;7.33;5.33;;;;;18.69;25.92;101990.28;5093834;27;46017;-73
2022/04/17 07:08:13;;;;;;;;;4.00;3.00;;;;;18.74;25.93;101943.97;5097703;27;45212;-77
2022/04/17 07:10:40;;;;;;;;;4.00;4.00;;;;;19.28;25.95;101979.34;5094979;27;45580;-70
2022/04/17 07:13:15;;;;;;;;;6.00;4.00;;;;;19.50;24.62;101973.22;5078003;27;45497;-70
2022/04/17 07:15:41;;;;;;;;;5.00;5.00;;;;;19.62;25.16;101961.09;5089315;27;46495;-71
2022/04/17 07:18:06;;;;;;;;;7.00;5.00;;;;;19.70;24.59;101963.75;5081077;27;45382;-70
2022/04/17 07:20:32;;;;;;;;;7.00;6.67;;;;;19.96;24.52;101941.03;5089575;27;45502;-71
2022/04/17 07:23:00;;;;;;;;;4.00;4.00;;;;;20.41;24.74;101961.03;5098352;27;45558;-73
2022/04/17 07:25:25;;;;;;;;;6.00;6.00;;;;;20.81;23.34;101962.59;5078647;27;46620;-73
2022/04/17 07:27:51;;;;;;;;;5.33;4.33;;;;;20.57;23.89;101912.28;5087200;27;45391;-73
2022/04/17 07:30:28;;;;;;;;;3.33;3.33;;;;;21.29;23.51;101969.47;5081248;27;45454;-73
2022/04/17 07:32:55;;;;;;;;;5.00;5.00;;;;;21.52;22.43;101967.53;5095498;27;45534;-71
2022/04/17 07:35:22;;;;;;;;;6.33;3.67;;;;;21.40;22.38;101958.19;5095604;27;46626;-72
2022/04/17 07:37:56;;;;;;;;;5.67;5.67;;;;;21.44;22.54;101954.09;5084617;28;45229;-71
2022/04/17 07:40:25;;;;;;;;;13.67;6.00;;;;;21.33;22.16;101957.25;5091399;27;45397;-72
2022/04/17 07:42:51;;;;;;;;;6.00;6.00;;;;;21.25;22.69;101924.88;5081767;27;45441;-71
2022/04/17 07:45:18;;;;;;;;;6.00;6.00;;;;;21.37;22.08;101947.72;5089285;27;46161;-72
2022/04/17 07:47:44;;;;;;;;;5.33;3.67;;;;;21.40;22.51;101955.47;5070184;27;46234;-73
2022/04/17 07:50:13;;;;;;;;;4.00;4.00;;;;;21.48;22.51;101955.41;5079708;27;45574;-73
2022/04/17 07:52:39;;;;;;;;;7.67;7.33;;;;;21.45;22.53;101954.94;5088617;27;45503;-76
2022/04/17 07:55:06;;;;;;;;;8.00;6.67;;;;;21.38;22.07;101956.69;5084527;27;46884;-73
2022/04/17 07:57:55;;;;;;;;;5.33;5.33;;;;;21.08;22.18;101939.56;5083003;27;45609;-75
2022/04/17 08:00:21;;;;;;;;;7.33;6.00;;;;;20.76;22.30;101867.72;5080014;27;45395;-73
2022/04/17 08:03:08;;;;;;;;;7.00;4.67;;;;;21.21;22.80;101916.25;5081666;27;45413;-77
2022/04/17 08:05:38;;;;;;;;;4.33;4.33;;;;;21.63;22.07;101930.22;5063478;27;48394;-72
2022/04/17 08:08:04;;;;;;;;;6.00;6.00;;;;;21.90;22.02;101907.00;5099641;27;45579;-75
2022/04/17 08:10:29;;;;;;;;;5.00;5.00;;;;;21.99;21.44;101912.09;5093844;27;45549;-71
2022/04/17 08:12:54;;;;;;;;;5.00;5.00;;;;;22.12;21.73;101923.13;5090005;27;45542;-71
2022/04/17 08:15:20;;;;;;;;;8.00;5.67;;;;;22.30;21.26;101911.03;5086805;27;45624;-69
2022/04/17 08:17:45;;;;;;;;;8.33;8.33;;;;;22.45;21.14;101907.22;5098747;27;45466;-71
2022/04/17 08:20:11;;;;;;;;;6.00;6.00;;;;;22.48;20.41;101908.72;5098578;27;45550;-72
2022/04/17 08:22:36;;;;;;;;;7.00;5.67;;;;;22.62;20.88;101921.34;5071030;27;45551;-73
2022/04/17 08:25:02;;;;;;;;;4.00;4.00;;;;;21.94;20.08;101822.50;5098004;27;46112;-72
2022/04/17 08:27:28;;;;;;;;;6.00;6.00;;;;;22.51;19.87;101911.03;5083648;27;45549;-72
2022/04/17 08:30:25;;;;;;;;;6.00;4.00;;;;;22.02;20.25;101865.69;5068377;27;45574;-72
2022/04/17 08:32:52;;;;;;;;;4.00;4.00;;;;;22.71;20.33;101914.75;5082958;27;45260;-71
2022/04/17 08:35:18;;;;;;;;;6.33;6.33;;;;;22.79;19.31;101875.81;5097188;27;45450;-72
2022/04/17 08:37:46;;;;;;;;;7.33;5.33;;;;;23.12;19.26;101916.78;5079225;27;45518;-71
2022/04/17 08:40:12;;;;;;;;;4.67;3.33;;;;;23.29;19.25;101887.44;5078524;27;45490;-71
2022/04/17 08:42:39;;;;;;;;;4.00;4.00;;;;;23.68;18.46;101911.28;5083186;27;45236;-72
2022/04/17 08:45:07;;;;;;;;;3.00;3.00;;;;;23.90;18.19;101888.38;5077820;27;47749;-70
2022/04/17 08:47:34;;;;;;;;;4.33;4.33;;;;;24.11;17.90;101897.44;5059732;28;46067;-72
2022/04/17 08:50:00;;;;;;;;;4.00;2.33;;;;;24.19;17.97;101891.78;5068993;28;45537;-71
2022/04/17 08:52:30;;;;;;;;;5.33;5.00;;;;;24.64;18.66;101895.66;5079948;27;45478;-68
2022/04/17 08:55:00;;;;;;;;;2.67;2.67;;;;;24.95;17.47;101892.28;5078089;28;47088;-77
2022/04/17 08:57:25;;;;;;;;;4.00;4.00;;;;;25.40;17.47;101897.84;5059533;27;45774;-72
2022/04/17 08:59:50;;;;;;;;;5.00;5.00;;;;;25.69;16.94;101877.47;5080055;27;45478;-71
2022/04/17 09:02:17;;;;;;;;;2.33;2.33;;;;;25.65;16.90;101889.84;5093297;27;45454;-77
2022/04/17 09:04:43;;;;;;;;;4.33;4.00;;;;;25.50;16.61;101898.25;5096745;27;45770;-74
2022/04/17 09:07:14;;;;;;;;;3.00;3.00;;;;;25.40;16.57;101887.81;5097892;27;45553;-71
2022/04/17 09:09:47;;;;;;;;;3.67;3.67;;;;;25.73;15.89;101885.00;5097253;27;45431;-71
2022/04/17 09:12:19;;;;;;;;;3.67;2.67;;;;;25.58;15.81;101892.56;5079048;27;45409;-75
2022/04/17 09:14:44;;;;;;;;;4.00;4.00;;;;;25.47;16.08;101879.63;5078479;27;47766;-73
2022/04/17 09:17:10;;;;;;;;;3.00;3.00;;;;;25.62;15.80;101860.28;5096846;27;45426;-72
2022/04/17 09:19:36;;;;;;;;;5.67;5.67;;;;;26.44;15.29;101872.25;5078786;27;45405;-71
2022/04/17 09:22:06;;;;;;;;;3.67;3.67;;;;;27.39;14.24;101867.31;5078471;27;45249;-72
2022/04/17 09:24:38;;;;;;;;;3.00;3.00;;;;;28.44;13.74;101856.88;5078784;27;48708;-72
2022/04/17 09:27:05;;;;;;;;;4.67;4.67;;;;;29.51;13.27;101865.66;5079015;27;45481;-72
2022/04/17 09:29:36;;;;;;;;;4.67;3.33;;;;;30.35;12.96;101849.41;5078551;27;45474;-72
2022/04/17 09:32:10;;;;;;;;;4.00;4.00;;;;;30.79;11.87;101868.78;5097903;27;45236;-72
2022/04/17 09:34:58;;;;;;;;;4.00;3.00;;;;;31.68;13.73;101852.97;5097852;27;46531;-72
2022/04/17 09:37:25;;;;;;;;;3.67;3.67;;;;;32.73;11.18;101844.31;5097997;27;45506;-72
2022/04/17 09:39:54;;;;;;;;;4.00;3.00;;;;;33.33;10.26;101849.38;5098169;27;45430;-73
2022/04/17 09:42:27;;;;;;;;;2.00;2.00;;;;;33.67;9.76;101860.00;5098230;27;45508;-74
2022/04/17 09:45:00;;;;;;;;;3.00;3.00;;;;;33.94;9.99;101852.34;5097834;27;46484;-73
2022/04/17 09:47:27;;;;;;;;;4.00;4.00;;;;;34.23;10.00;101821.44;5097949;27;45460;-72
2022/04/17 09:50:08;;;;;;;;;3.33;3.33;;;;;34.85;9.74;101846.03;5097938;27;45201;-72
2022/04/17 09:52:46;;;;;;;;;4.00;2.67;;;;;35.17;9.10;101829.03;5079409;27;45479;-71
2022/04/17 09:55:26;;;;;;;;;4.00;4.00;;;;;35.42;8.75;101838.34;5097426;27;46512;-72
2022/04/17 09:58:00;;;;;;;;;3.00;2.67;;;;;34.75;9.32;101769.47;5097220;27;45194;-74
2022/04/17 10:00:26;;;;;;;;;3.33;3.33;;;;;35.74;9.51;101824.06;5075550;28;45414;-76
2022/04/17 10:02:51;;;;;;;;;2.00;2.00;;;;;36.18;8.81;101786.09;5095336;27;45331;-74
2022/04/17 10:05:18;;;;;;;;;3.00;3.00;;;;;34.91;9.37;101810.91;5096194;27;45403;-74
2022/04/17 10:07:46;;;;;;;;;3.00;3.00;;;;;33.77;9.67;101778.06;5098436;27;45410;-76
2022/04/17 10:10:13;;;;;;;;;3.67;3.67;;;;;33.74;10.10;101802.63;5083811;27;45386;-76
2022/04/17 10:12:43;;;;;;;;;4.67;4.67;;;;;33.41;10.16;101810.25;5098077;27;45451;-75
2022/04/17 10:15:11;;;;;;;;;4.33;4.33;;;;;32.84;10.77;101782.72;5089666;27;45822;-73
2022/04/17 10:17:47;;;;;;;;;3.00;3.00;;;;;32.31;11.44;101801.09;5076820;28;45383;-75
2022/04/17 10:20:14;;;;;;;;;3.33;3.33;;;;;31.03;11.72;101798.00;5056830;28;45566;-72
2022/04/17 10:22:42;;;;;;;;;3.33;3.33;;;;;29.83;12.33;101800.19;5075493;28;45524;-73
2022/04/17 10:25:09;;;;;;;;;3.00;3.00;;;;;28.92;12.83;101803.81;5075577;28;45880;-72
2022/04/17 10:27:45;;;;;;;;;3.00;3.00;;;;;27.77;13.50;101798.78;5075836;28;45394;-72
2022/04/17 10:30:20;;;;;;;;;7.00;5.00;;;;;26.25;14.45;101801.25;5058868;28;45479;-74
2022/04/17 10:33:20;;;;;;;;;3.00;3.00;;;;;25.34;15.54;101796.13;5076873;28;45522;-73
2022/04/17 10:36:20;;;;;;;;;4.33;4.00;;;;;24.68;16.06;101788.13;5079595;27;46334;-73
2022/04/17 10:38:53;;;;;;;;;2.67;2.67;;;;;24.39;16.48;101783.97;5079012;28;45494;-74
2022/04/17 10:41:19;;;;;;;;;3.00;3.00;;;;;23.58;17.39;101720.78;5081346;28;45447;-72
2022/04/17 10:43:47;;;;;;;;;3.00;3.00;;;;;23.33;17.13;101766.59;5081815;28;45617;-73
2022/04/17 10:46:21;;;;;;;;;5.33;3.67;;;;;23.08;17.42;101768.19;5061757;28;46891;-74
2022/04/17 10:48:47;;;;;;;;;3.00;3.00;;;;;22.74;17.90;101757.13;5085681;27;45446;-77
2022/04/17 10:51:16;;;;;;;;;4.67;4.00;;;;;22.40;18.47;101771.47;5100888;27;45336;-75
2022/04/17 10:54:03;;;;;;;;;6.67;6.67;;;;;21.99;18.55;101765.03;5101014;27;45361;-74
2022/04/17 10:56:29;;;;;;;;;4.00;4.00;;;;;21.52;18.99;101763.75;5100669;27;45945;-73
2022/04/17 10:58:59;;;;;;;;;4.00;3.00;;;;;21.31;19.39;101764.53;5081938;27;45770;-74
2022/04/17 11:01:40;;;;;;;;;3.00;3.00;;;;;20.94;19.19;101697.91;5081586;27;45455;-72
2022/04/17 11:04:21;;;;;;;;;4.00;3.00;;;;;20.66;19.48;101684.25;5100531;27;45506;-71
2022/04/17 11:06:52;;;;;;;;;4.67;4.67;;;;;20.83;19.43;101739.78;5086621;27;46547;-73
2022/04/17 11:09:25;;;;;;;;;2.00;1.00;;;;;20.41;19.92;101680.13;5079530;28;45475;-72
2022/04/17 11:11:51;;;;;;;;;2.67;2.67;;;;;20.82;19.98;101745.34;5079621;28;45469;-72
2022/04/17 11:14:26;;;;;;;;;3.00;3.00;;;;;20.30;19.92;101652.53;5080088;28;45429;-74
2022/04/17 11:17:01;;;;;;;;;3.00;3.00;;;;;20.67;19.99;101721.03;5079658;28;46809;-73
2022/04/17 11:19:33;;;;;;;;;2.00;2.00;;;;;20.44;19.89;101717.59;5059742;28;45475;-73
2022/04/17 11:22:07;;;;;;;;;2.67;2.67;;;;;20.40;20.03;101727.88;5059880;28;45417;-74
2022/04/17 11:24:54;;;;;;;;;3.33;3.33;;;;;20.39;20.19;101719.94;5060749;28;45455;-72
2022/04/17 11:27:35;;;;;;;;;3.00;3.00;;;;;20.17;20.00;101711.72;5060195;28;47081;-72
2022/04/17 11:30:03;;;;;;;;;4.00;2.33;;;;;20.19;20.86;101715.06;5078809;28;45489;-75
2022/04/17 11:32:29;;;;;;;;;3.67;3.00;;;;;20.20;20.66;101715.91;5078956;28;45387;-71
2022/04/17 11:34:57;;;;;;;;;5.00;4.00;;;;;20.07;20.57;101684.16;5079444;28;45314;-71
2022/04/17 11:37:24;;;;;;;;;2.00;2.00;;;;;19.85;19.94;101629.22;5096924;27;45552;-72
2022/04/17 11:39:51;;;;;;;;;4.00;4.00;;;;;20.07;20.01;101700.38;5080991;27;45513;-71
2022/04/17 11:42:18;;;;;;;;;3.67;2.67;;;;;19.92;19.98;101700.31;5099716;27;45216;-72